createdAt,value
2022-08-03T00:00:21.522Z,21.06
2022-08-03T00:00:53.802Z,21.07
2022-08-03T00:01:26.203Z,21.08
2022-08-03T00:02:01.980Z,21.08
2022-08-03T00:02:35.973Z,21.08
2022-08-03T00:03:08.203Z,21.08
2022-08-03T00:03:42.951Z,21.10
2022-08-03T00:04:15.169Z,21.09
2022-08-03T00:04:47.727Z,21.09
2022-08-03T00:05:22.705Z,21.10
2022-08-03T00:06:04.120Z,21.12
2022-08-03T00:06:37.480Z,21.09
2022-08-03T00:07:12.213Z,21.10
2022-08-03T00:07:44.418Z,21.10
2022-08-03T00:08:16.626Z,21.09
2022-08-03T00:08:54.343Z,21.09
2022-08-03T00:09:26.579Z,21.07
2022-08-03T00:10:08.821Z,21.04
2022-08-03T00:10:43.585Z,21.02
2022-08-03T00:11:15.776Z,21.02
2022-08-03T00:11:47.895Z,21.03
2022-08-03T00:12:28.379Z,21.00
2022-08-03T00:13:00.581Z,20.98
2022-08-03T00:13:33.040Z,20.98
2022-08-03T00:14:08.054Z,21.01
2022-08-03T00:14:40.238Z,20.99
2022-08-03T00:15:16.315Z,20.99
2022-08-03T00:15:51.686Z,20.98
2022-08-03T00:16:25.349Z,20.98
2022-08-03T00:16:58.226Z,20.95
2022-08-03T00:17:52.989Z,20.97
2022-08-03T00:18:25.152Z,20.93
2022-08-03T00:19:00.741Z,20.94
2022-08-03T00:19:33.218Z,20.94
2022-08-03T00:20:06.306Z,20.94
2022-08-03T00:20:41.486Z,20.95
2022-08-03T00:21:13.610Z,20.95
2022-08-03T00:21:47.927Z,20.96
2022-08-03T00:22:22.626Z,20.97
2022-08-03T00:22:56.290Z,20.96
2022-08-03T00:23:51.887Z,20.98
2022-08-03T00:24:23.891Z,20.94
2022-08-03T00:24:56.098Z,20.95
2022-08-03T00:25:28.344Z,20.97
2022-08-03T00:26:03.338Z,20.96
2022-08-03T00:26:35.441Z,20.94
2022-08-03T00:27:07.590Z,20.94
2022-08-03T00:27:45.148Z,20.93
2022-08-03T00:28:17.378Z,20.92
2022-08-03T00:28:50.617Z,20.91
2022-08-03T00:29:25.756Z,20.92
2022-08-03T00:30:00.288Z,20.89
2022-08-03T00:30:33.557Z,20.88
2022-08-03T00:31:08.285Z,20.90
2022-08-03T00:31:52.554Z,20.88
2022-08-03T00:32:25.119Z,20.87
2022-08-03T00:33:00.171Z,20.89
2022-08-03T00:33:58.663Z,20.92
2022-08-03T00:34:29.895Z,20.92
2022-08-03T00:35:28.036Z,20.93
2022-08-03T00:36:04.614Z,20.92
2022-08-03T00:36:39.322Z,20.95
2022-08-03T00:37:11.490Z,20.96
2022-08-03T00:37:43.635Z,20.99
2022-08-03T00:38:18.451Z,20.99
2022-08-03T00:38:50.775Z,21.02
2022-08-03T00:39:22.899Z,21.01
2022-08-03T00:39:57.689Z,21.03
2022-08-03T00:40:32.787Z,21.02
2022-08-03T00:41:04.964Z,21.02
2022-08-03T00:41:39.677Z,21.02
2022-08-03T00:42:11.816Z,21.00
2022-08-03T00:42:51.863Z,21.00
2022-08-03T00:43:28.879Z,20.96
2022-08-03T00:44:01.066Z,20.95
2022-08-03T00:44:40.148Z,20.95
2022-08-03T00:45:12.405Z,20.94
2022-08-03T00:45:47.339Z,20.92
2022-08-03T00:46:22.667Z,20.94
2022-08-03T00:46:54.862Z,20.96
2022-08-03T00:47:29.546Z,20.96
2022-08-03T00:48:02.878Z,20.96
2022-08-03T00:48:37.594Z,20.98
2022-08-03T00:49:09.893Z,20.97
2022-08-03T00:49:42.974Z,20.98
2022-08-03T00:50:15.821Z,20.98
2022-08-03T00:50:50.841Z,20.95
2022-08-03T00:51:26.494Z,20.92
2022-08-03T00:52:00.901Z,20.91
2022-08-03T00:52:44.483Z,20.89
2022-08-03T00:53:16.709Z,20.88
2022-08-03T00:53:51.284Z,20.88
2022-08-03T00:54:27.517Z,20.89
2022-08-03T00:55:01.091Z,20.87
2022-08-03T00:55:33.390Z,20.88
2022-08-03T00:56:08.514Z,20.88
2022-08-03T00:56:41.670Z,20.87
2022-08-03T00:57:35.969Z,20.83
2022-08-03T00:58:11.930Z,20.83
2022-08-03T00:58:45.839Z,20.83
2022-08-03T00:59:18.942Z,20.84
2022-08-03T00:59:53.783Z,20.86
2022-08-03T01:00:28.009Z,20.87
2022-08-03T01:01:00.353Z,20.87
2022-08-03T01:01:35.220Z,20.87
2022-08-03T01:02:07.562Z,20.87
2022-08-03T01:02:40.235Z,20.87
2022-08-03T01:03:14.942Z,20.86
2022-08-03T01:03:47.571Z,20.86
2022-08-03T01:04:19.749Z,20.87
2022-08-03T01:04:51.910Z,20.87
2022-08-03T01:05:28.471Z,20.88
2022-08-03T01:06:12.162Z,20.86
2022-08-03T01:06:50.601Z,20.86
2022-08-03T01:07:35.549Z,20.86
2022-08-03T01:08:20.664Z,20.85
2022-08-03T01:09:04.643Z,20.85
2022-08-03T01:09:46.550Z,20.85
2022-08-03T01:10:31.687Z,20.86
2022-08-03T01:11:10.497Z,20.87
2022-08-03T01:12:00.010Z,20.87
2022-08-03T01:12:41.554Z,20.84
2022-08-03T01:14:01.226Z,20.84
2022-08-03T01:14:26.286Z,20.82
2022-08-03T01:15:06.373Z,20.84
2022-08-03T01:15:44.764Z,20.85
2022-08-03T01:16:36.529Z,20.84
2022-08-03T01:17:15.182Z,20.80
2022-08-03T01:17:54.097Z,20.82
2022-08-03T01:18:39.150Z,20.82
2022-08-03T01:19:32.555Z,20.82
2022-08-03T01:20:09.780Z,20.81
2022-08-03T01:20:50.118Z,20.83
2022-08-03T01:21:27.003Z,20.78
2022-08-03T01:22:17.318Z,20.79
2022-08-03T01:23:09.291Z,20.78
2022-08-03T01:23:59.894Z,20.78
2022-08-03T01:24:44.212Z,20.77
2022-08-03T01:25:28.745Z,20.76
2022-08-03T01:26:13.635Z,20.78
2022-08-03T01:27:06.963Z,20.75
2022-08-03T01:27:51.855Z,20.74
2022-08-03T01:28:45.806Z,20.72
2022-08-03T01:29:53.202Z,20.70
2022-08-03T01:30:30.317Z,20.68
2022-08-03T01:31:09.979Z,20.70
2022-08-03T01:32:58.900Z,20.70
2022-08-03T01:33:00.030Z,20.69
2022-08-03T01:33:39.539Z,20.66
2022-08-03T01:34:18.882Z,20.69
2022-08-03T01:34:54.491Z,20.69
2022-08-03T01:35:38.428Z,20.72
2022-08-03T01:36:16.197Z,20.71
2022-08-03T01:36:52.879Z,20.73
2022-08-03T01:37:32.992Z,20.75
2022-08-03T01:38:10.278Z,20.75
2022-08-03T01:38:47.711Z,20.78
2022-08-03T01:39:21.516Z,20.78
2022-08-03T01:39:58.434Z,20.81
2022-08-03T01:40:37.219Z,20.82
2022-08-03T01:41:14.006Z,20.82
2022-08-03T01:41:49.619Z,20.85
2022-08-03T01:42:25.951Z,20.86
2022-08-03T01:43:00.306Z,20.86
2022-08-03T01:44:27.852Z,20.85
2022-08-03T01:44:30.920Z,20.82
2022-08-03T01:45:07.724Z,20.82
2022-08-03T01:45:40.559Z,20.82
2022-08-03T01:46:16.412Z,20.83
2022-08-03T01:46:51.462Z,20.81
2022-08-03T01:47:25.881Z,20.83
2022-08-03T01:48:01.780Z,20.83
2022-08-03T01:48:36.599Z,20.84
2022-08-03T01:49:12.113Z,20.83
2022-08-03T01:49:45.777Z,20.84
2022-08-03T01:50:25.399Z,20.86
2022-08-03T01:50:58.283Z,20.85
2022-08-03T01:51:57.680Z,20.84
2022-08-03T01:52:28.154Z,20.81
2022-08-03T01:53:00.774Z,20.81
2022-08-03T01:53:35.753Z,20.82
2022-08-03T01:54:13.241Z,20.82
2022-08-03T01:54:48.922Z,20.80
2022-08-03T01:55:23.946Z,20.81
2022-08-03T01:56:00.504Z,20.83
2022-08-03T01:56:33.616Z,20.82
2022-08-03T01:57:07.268Z,20.82
2022-08-03T01:58:05.411Z,20.83
2022-08-03T01:58:40.969Z,20.82
2022-08-03T01:59:19.564Z,20.86
2022-08-03T01:59:54.131Z,20.88
2022-08-03T02:00:29.669Z,20.90
2022-08-03T02:01:06.433Z,20.89
2022-08-03T02:02:28.415Z,20.87
2022-08-03T02:02:34.770Z,20.81
2022-08-03T02:03:10.720Z,20.81
2022-08-03T02:04:00.826Z,20.81
2022-08-03T02:04:33.970Z,20.70
2022-08-03T02:05:12.904Z,20.71
2022-08-03T02:05:46.442Z,20.71
2022-08-03T02:06:41.007Z,20.73
2022-08-03T02:07:18.147Z,20.68
2022-08-03T02:07:51.452Z,20.69
2022-08-03T02:08:25.867Z,20.69
2022-08-03T02:09:03.299Z,20.71
2022-08-03T02:09:39.158Z,20.71
2022-08-03T02:10:17.006Z,20.69
2022-08-03T02:11:07.599Z,20.68
2022-08-03T02:11:43.663Z,20.66
2022-08-03T02:12:16.728Z,20.66
2022-08-03T02:12:51.240Z,20.66
2022-08-03T02:13:29.731Z,20.65
2022-08-03T02:14:05.506Z,20.65
2022-08-03T02:14:39.600Z,20.65
2022-08-03T02:15:15.309Z,20.66
2022-08-03T02:15:50.546Z,20.65
2022-08-03T02:16:24.777Z,20.65
2022-08-03T02:17:00.855Z,20.66
2022-08-03T02:17:39.000Z,20.66
2022-08-03T02:18:13.460Z,20.65
2022-08-03T02:18:50.954Z,20.68
2022-08-03T02:19:25.308Z,20.70
2022-08-03T02:20:00.365Z,20.73
2022-08-03T02:20:37.756Z,20.76
2022-08-03T02:21:12.257Z,20.78
2022-08-03T02:22:08.663Z,20.76
2022-08-03T02:22:42.067Z,20.79
2022-08-03T02:23:15.931Z,20.80
2022-08-03T02:23:50.742Z,20.82
2022-08-03T02:24:22.880Z,20.84
2022-08-03T02:24:55.111Z,20.84
2022-08-03T02:25:31.103Z,20.85
2022-08-03T02:26:06.506Z,20.82
2022-08-03T02:26:41.183Z,20.81
2022-08-03T02:27:21.463Z,20.80
2022-08-03T02:27:55.791Z,20.72
2022-08-03T02:28:33.000Z,20.73
2022-08-03T02:29:19.044Z,20.73
2022-08-03T02:29:56.624Z,20.74
2022-08-03T02:30:33.609Z,20.74
2022-08-03T02:31:16.839Z,20.74
2022-08-03T02:31:50.911Z,20.73
2022-08-03T02:32:32.453Z,20.72
2022-08-03T02:33:06.368Z,20.69
2022-08-03T02:33:44.210Z,20.67
2022-08-03T02:34:21.501Z,20.67
2022-08-03T02:34:56.675Z,20.67
2022-08-03T02:35:33.532Z,20.65
2022-08-03T02:36:08.222Z,20.66
2022-08-03T02:36:42.614Z,20.66
2022-08-03T02:37:20.945Z,20.67
2022-08-03T02:37:59.965Z,20.65
2022-08-03T02:38:34.452Z,20.67
2022-08-03T02:39:12.779Z,20.68
2022-08-03T02:39:47.248Z,20.66
2022-08-03T02:40:23.562Z,20.68
2022-08-03T02:41:00.698Z,20.67
2022-08-03T02:41:37.590Z,20.67
2022-08-03T02:42:14.595Z,20.67
2022-08-03T02:42:52.294Z,20.66
2022-08-03T02:43:25.606Z,20.66
2022-08-03T02:44:06.436Z,20.67
2022-08-03T02:44:41.683Z,20.67
2022-08-03T02:45:19.765Z,20.67
2022-08-03T02:45:53.819Z,20.66
2022-08-03T02:46:32.646Z,20.66
2022-08-03T02:47:10.809Z,20.68
2022-08-03T02:47:54.579Z,20.71
2022-08-03T02:48:33.420Z,20.72
2022-08-03T02:49:42.138Z,20.74
2022-08-03T02:50:01.892Z,20.73
2022-08-03T02:50:37.759Z,20.75
2022-08-03T02:51:10.808Z,20.74
2022-08-03T02:51:45.347Z,20.76
2022-08-03T02:52:20.305Z,20.78
2022-08-03T02:52:55.767Z,20.78
2022-08-03T02:53:29.282Z,20.79
2022-08-03T02:54:03.137Z,20.75
2022-08-03T02:54:36.471Z,20.82
2022-08-03T02:55:14.395Z,20.82
2022-08-03T02:55:47.486Z,20.80
2022-08-03T02:56:19.970Z,20.83
2022-08-03T02:56:57.049Z,20.85
2022-08-03T02:57:31.805Z,20.86
2022-08-03T02:58:05.086Z,20.89
2022-08-03T02:58:41.421Z,20.91
2022-08-03T02:59:15.138Z,20.92
2022-08-03T02:59:48.325Z,20.93
2022-08-03T03:00:28.250Z,20.94
2022-08-03T03:01:04.298Z,20.95
2022-08-03T03:01:40.251Z,20.96
2022-08-03T03:02:17.557Z,20.97
2022-08-03T03:02:51.259Z,20.96
2022-08-03T03:03:23.931Z,20.96
2022-08-03T03:04:02.973Z,20.94
2022-08-03T03:04:36.203Z,20.91
2022-08-03T03:05:55.047Z,20.92
2022-08-03T03:06:06.808Z,20.84
2022-08-03T03:06:40.352Z,20.84
2022-08-03T03:07:13.951Z,20.84
2022-08-03T03:07:52.898Z,20.85
2022-08-03T03:08:28.746Z,20.84
2022-08-03T03:09:02.077Z,20.83
2022-08-03T03:09:41.606Z,20.85
2022-08-03T03:10:15.371Z,20.82
2022-08-03T03:10:48.739Z,20.84
2022-08-03T03:11:31.341Z,20.83
2022-08-03T03:12:04.713Z,20.84
2022-08-03T03:12:38.838Z,20.84
2022-08-03T03:13:14.752Z,20.85
2022-08-03T03:13:49.063Z,20.84
2022-08-03T03:14:33.812Z,20.86
2022-08-03T03:15:09.620Z,20.85
2022-08-03T03:15:43.692Z,20.86
2022-08-03T03:16:17.477Z,20.87
2022-08-03T03:16:57.818Z,20.86
2022-08-03T03:17:31.068Z,20.85
2022-08-03T03:18:04.389Z,20.86
2022-08-03T03:18:40.740Z,20.88
2022-08-03T03:19:15.997Z,20.88
2022-08-03T03:19:52.711Z,20.90
2022-08-03T03:20:28.943Z,20.91
2022-08-03T03:21:07.298Z,20.92
2022-08-03T03:21:40.159Z,20.91
2022-08-03T03:22:13.399Z,20.91
2022-08-03T03:22:51.752Z,20.92
2022-08-03T03:23:27.041Z,20.92
2022-08-03T03:24:00.016Z,20.92
2022-08-03T03:24:35.568Z,20.93
2022-08-03T03:25:09.158Z,20.93
2022-08-03T03:25:41.903Z,20.96
2022-08-03T03:26:19.554Z,20.97
2022-08-03T03:26:51.936Z,20.99
2022-08-03T03:27:24.635Z,20.99
2022-08-03T03:28:04.060Z,20.99
2022-08-03T03:28:38.961Z,20.97
2022-08-03T03:29:11.437Z,20.97
2022-08-03T03:29:46.764Z,21.00
2022-08-03T03:30:19.034Z,20.99
2022-08-03T03:30:52.695Z,21.00
2022-08-03T03:31:28.053Z,21.00
2022-08-03T03:32:02.998Z,20.98
2022-08-03T03:32:41.756Z,20.95
2022-08-03T03:33:14.148Z,20.94
2022-08-03T03:33:49.393Z,20.95
2022-08-03T03:34:21.749Z,20.94
2022-08-03T03:34:56.222Z,20.96
2022-08-03T03:35:31.414Z,20.98
2022-08-03T03:36:13.712Z,20.95
2022-08-03T03:36:45.917Z,20.95
2022-08-03T03:37:18.082Z,20.94
2022-08-03T03:37:52.866Z,20.94
2022-08-03T03:38:25.060Z,20.95
2022-08-03T03:38:57.807Z,20.96
2022-08-03T03:39:32.752Z,20.98
2022-08-03T03:40:06.497Z,20.98
2022-08-03T03:40:39.400Z,20.99
2022-08-03T03:41:14.570Z,21.02
2022-08-03T03:41:46.850Z,21.02
2022-08-03T03:42:19.262Z,21.05
2022-08-03T03:42:51.593Z,21.06
2022-08-03T03:43:27.166Z,21.09
2022-08-03T03:43:59.611Z,21.09
2022-08-03T03:44:32.168Z,21.11
2022-08-03T03:45:04.684Z,21.13
2022-08-03T03:45:39.721Z,21.13
2022-08-03T03:46:13.522Z,21.13
2022-08-03T03:46:48.467Z,21.11
2022-08-03T03:47:32.708Z,21.12
2022-08-03T03:48:09.379Z,21.09
2022-08-03T03:48:41.806Z,21.09
2022-08-03T03:49:14.295Z,21.09
2022-08-03T03:49:49.552Z,21.09
2022-08-03T03:50:24.937Z,21.08
2022-08-03T03:50:58.070Z,21.07
2022-08-03T03:51:33.576Z,21.06
2022-08-03T03:52:06.557Z,21.05
2022-08-03T03:52:38.860Z,21.05
2022-08-03T03:53:12.624Z,21.07
2022-08-03T03:53:58.668Z,21.08
2022-08-03T03:54:40.773Z,21.06
2022-08-03T03:55:16.694Z,21.11
2022-08-03T03:55:59.388Z,21.10
2022-08-03T03:56:35.182Z,21.10
2022-08-03T03:57:10.480Z,21.13
2022-08-03T03:57:46.559Z,21.12
2022-08-03T03:58:19.020Z,21.16
2022-08-03T03:58:53.744Z,21.17
2022-08-03T03:59:25.923Z,21.19
2022-08-03T03:59:58.287Z,21.19
2022-08-03T04:00:33.465Z,21.20
2022-08-03T04:01:06.063Z,21.20
2022-08-03T04:01:39.031Z,21.20
2022-08-03T04:02:14.980Z,21.20
2022-08-03T04:02:49.900Z,21.18
2022-08-03T04:03:22.125Z,21.16
2022-08-03T04:03:56.902Z,21.13
2022-08-03T04:04:44.060Z,21.13
2022-08-03T04:05:31.369Z,21.08
2022-08-03T04:06:18.741Z,21.06
2022-08-03T04:07:06.318Z,21.03
2022-08-03T04:08:01.726Z,21.02
2022-08-03T04:08:49.463Z,20.96
2022-08-03T04:09:36.924Z,20.91
2022-08-03T04:10:29.228Z,20.91
2022-08-03T04:11:11.999Z,20.91
2022-08-03T04:11:48.199Z,20.93
2022-08-03T04:12:27.423Z,20.96
2022-08-03T04:13:02.570Z,20.95
2022-08-03T04:13:39.210Z,20.96
2022-08-03T04:14:17.685Z,20.98
2022-08-03T04:14:52.108Z,20.97
2022-08-03T04:15:27.812Z,20.98
2022-08-03T04:16:04.123Z,20.99
2022-08-03T04:16:43.450Z,21.00
2022-08-03T04:17:19.876Z,21.00
2022-08-03T04:17:59.264Z,21.01
2022-08-03T04:18:34.988Z,21.02
2022-08-03T04:19:13.304Z,21.04
2022-08-03T04:19:50.778Z,21.07
2022-08-03T04:20:24.319Z,21.09
2022-08-03T04:21:01.928Z,21.12
2022-08-03T04:21:35.783Z,21.14
2022-08-03T04:22:20.436Z,21.14
2022-08-03T04:22:54.658Z,21.12
2022-08-03T04:23:28.164Z,21.13
2022-08-03T04:24:07.666Z,21.14
2022-08-03T04:24:43.568Z,21.13
2022-08-03T04:25:19.508Z,21.14
2022-08-03T04:25:56.251Z,21.13
2022-08-03T04:26:32.045Z,21.16
2022-08-03T04:27:10.106Z,21.18
2022-08-03T04:27:44.883Z,21.18
2022-08-03T04:28:39.915Z,21.16
2022-08-03T04:29:16.145Z,21.18
2022-08-03T04:29:51.735Z,21.18
2022-08-03T04:30:25.535Z,21.17
2022-08-03T04:31:00.923Z,21.18
2022-08-03T04:31:34.138Z,21.17
2022-08-03T04:32:08.081Z,21.19
2022-08-03T04:32:45.970Z,21.20
2022-08-03T04:33:23.567Z,21.21
2022-08-03T04:34:02.734Z,21.18
2022-08-03T04:34:38.683Z,21.22
2022-08-03T04:35:10.928Z,21.23
2022-08-03T04:36:01.514Z,21.23
2022-08-03T04:36:46.243Z,21.22
2022-08-03T04:37:26.730Z,21.20
2022-08-03T04:38:06.289Z,21.22
2022-08-03T04:38:44.477Z,21.24
2022-08-03T04:39:20.078Z,21.30
2022-08-03T04:40:00.196Z,21.34
2022-08-03T04:40:35.125Z,21.39
2022-08-03T04:41:08.239Z,21.40
2022-08-03T04:42:07.931Z,21.43
2022-08-03T04:42:39.105Z,21.43
2022-08-03T04:43:15.269Z,21.45
2022-08-03T04:43:52.002Z,21.46
2022-08-03T04:44:28.309Z,21.49
2022-08-03T04:45:04.523Z,21.50
2022-08-03T04:45:40.735Z,21.53
2022-08-03T04:46:13.955Z,21.53
2022-08-03T04:46:50.562Z,21.56
2022-08-03T04:47:25.686Z,21.56
2022-08-03T04:47:58.465Z,21.57
2022-08-03T04:48:37.104Z,21.59
2022-08-03T04:49:10.327Z,21.60
2022-08-03T04:49:46.829Z,21.61
2022-08-03T04:50:21.742Z,21.65
2022-08-03T04:51:11.004Z,21.65
2022-08-03T04:51:46.185Z,21.66
2022-08-03T04:52:18.805Z,21.66
2022-08-03T04:52:50.956Z,21.63
2022-08-03T04:53:25.878Z,21.62
2022-08-03T04:53:58.177Z,21.58
2022-08-03T04:54:30.985Z,21.60
2022-08-03T04:55:05.799Z,21.59
2022-08-03T04:55:38.153Z,21.58
2022-08-03T04:56:10.645Z,21.58
2022-08-03T04:56:45.946Z,21.58
2022-08-03T04:57:23.296Z,21.57
2022-08-03T04:57:55.825Z,21.55
2022-08-03T04:58:30.541Z,21.53
2022-08-03T04:59:03.136Z,21.51
2022-08-03T04:59:39.185Z,21.49
2022-08-03T05:00:14.676Z,21.47
2022-08-03T05:00:51.208Z,21.47
2022-08-03T05:01:26.637Z,21.46
2022-08-03T05:01:58.821Z,21.48
2022-08-03T05:02:32.126Z,21.50
2022-08-03T05:03:20.246Z,21.52
2022-08-03T05:03:59.180Z,21.52
2022-08-03T05:04:34.020Z,21.53
2022-08-03T05:05:07.225Z,21.54
2022-08-03T05:05:50.036Z,21.55
2022-08-03T05:06:25.599Z,21.54
2022-08-03T05:06:57.854Z,21.56
2022-08-03T05:07:35.843Z,21.58
2022-08-03T05:08:11.423Z,21.57
2022-08-03T05:08:46.171Z,21.60
2022-08-03T05:09:45.832Z,21.63
2022-08-03T05:10:16.640Z,21.62
2022-08-03T05:10:49.076Z,21.66
2022-08-03T05:11:21.589Z,21.68
2022-08-03T05:11:56.343Z,21.70
2022-08-03T05:12:32.570Z,21.71
2022-08-03T05:13:05.436Z,21.71
2022-08-03T05:13:40.188Z,21.72
2022-08-03T05:14:12.374Z,21.75
2022-08-03T05:14:44.520Z,21.75
2022-08-03T05:15:19.243Z,21.74
2022-08-03T05:15:51.406Z,21.74
2022-08-03T05:16:26.014Z,21.75
2022-08-03T05:17:00.754Z,21.79
2022-08-03T05:17:34.128Z,21.81
2022-08-03T05:18:09.530Z,21.86
2022-08-03T05:18:47.240Z,21.87
2022-08-03T05:19:22.012Z,21.92
2022-08-03T05:19:54.690Z,21.96
2022-08-03T05:20:29.423Z,21.99
2022-08-03T05:21:01.725Z,21.99
2022-08-03T05:21:52.113Z,22.01
2022-08-03T05:22:27.825Z,21.99
2022-08-03T05:23:01.633Z,22.00
2022-08-03T05:23:36.572Z,21.98
2022-08-03T05:24:08.916Z,21.99
2022-08-03T05:24:41.083Z,21.97
2022-08-03T05:25:19.235Z,21.99
2022-08-03T05:25:52.081Z,21.96
2022-08-03T05:26:24.254Z,21.98
2022-08-03T05:26:58.997Z,21.99
2022-08-03T05:27:31.234Z,22.00
2022-08-03T05:28:03.785Z,22.01
2022-08-03T05:28:38.636Z,22.02
2022-08-03T05:29:10.943Z,22.04
2022-08-03T05:29:43.121Z,22.05
2022-08-03T05:30:30.994Z,22.06
2022-08-03T05:31:06.463Z,22.06
2022-08-03T05:31:41.230Z,22.08
2022-08-03T05:32:13.601Z,22.10
2022-08-03T05:32:45.831Z,22.15
2022-08-03T05:33:20.591Z,22.17
2022-08-03T05:33:53.070Z,22.19
2022-08-03T05:34:30.528Z,22.22
2022-08-03T05:35:55.941Z,22.23
2022-08-03T05:36:03.020Z,22.21
2022-08-03T05:36:36.465Z,22.23
2022-08-03T05:37:09.651Z,22.26
2022-08-03T05:37:54.487Z,22.29
2022-08-03T05:38:28.554Z,22.30
2022-08-03T05:39:08.742Z,22.31
2022-08-03T05:39:40.959Z,22.36
2022-08-03T05:40:13.778Z,22.40
2022-08-03T05:40:57.315Z,22.42
2022-08-03T05:41:40.806Z,22.41
2022-08-03T05:42:18.508Z,22.44
2022-08-03T05:42:50.866Z,22.44
2022-08-03T05:43:23.101Z,22.45
2022-08-03T05:43:58.320Z,22.44
2022-08-03T05:44:31.854Z,22.43
2022-08-03T05:45:13.006Z,22.43
2022-08-03T05:45:48.044Z,22.42
2022-08-03T05:46:40.176Z,22.37
2022-08-03T05:47:14.999Z,22.37
2022-08-03T05:47:48.136Z,22.37
2022-08-03T05:48:20.427Z,22.38
2022-08-03T05:48:55.263Z,22.38
2022-08-03T05:49:30.038Z,22.37
2022-08-03T05:50:02.312Z,22.38
2022-08-03T05:50:42.462Z,22.40
2022-08-03T05:51:15.043Z,22.40
2022-08-03T05:51:47.258Z,22.41
2022-08-03T05:52:34.627Z,22.41
2022-08-03T05:53:07.011Z,22.43
2022-08-03T05:53:39.630Z,22.43
2022-08-03T05:54:14.719Z,22.45
2022-08-03T05:54:56.420Z,22.46
2022-08-03T05:55:29.986Z,22.46
2022-08-03T05:56:14.920Z,22.48
2022-08-03T05:56:48.272Z,22.48
2022-08-03T05:57:20.409Z,22.50
2022-08-03T05:57:56.821Z,22.51
2022-08-03T05:58:30.055Z,22.52
2022-08-03T05:59:22.428Z,22.54
2022-08-03T05:59:58.510Z,22.54
2022-08-03T06:00:31.266Z,22.55
2022-08-03T06:01:03.466Z,22.54
2022-08-03T06:01:38.312Z,22.54
2022-08-03T06:02:10.579Z,22.53
2022-08-03T06:02:43.221Z,22.54
2022-08-03T06:03:18.136Z,22.56
2022-08-03T06:03:53.821Z,22.57
2022-08-03T06:04:26.029Z,22.60
2022-08-03T06:05:03.383Z,22.62
2022-08-03T06:05:36.739Z,22.63
2022-08-03T06:06:18.385Z,22.62
2022-08-03T06:06:51.135Z,22.63
2022-08-03T06:07:23.504Z,22.62
2022-08-03T06:07:58.374Z,22.62
2022-08-03T06:08:30.526Z,22.61
2022-08-03T06:09:02.718Z,22.63
2022-08-03T06:10:35.550Z,22.68
2022-08-03T06:10:36.527Z,22.66
2022-08-03T06:11:13.345Z,22.73
2022-08-03T06:11:45.992Z,22.78
2022-08-03T06:12:18.567Z,22.85
2022-08-03T06:12:53.707Z,22.90
2022-08-03T06:13:25.861Z,22.95
2022-08-03T06:13:58.041Z,22.97
2022-08-03T06:14:32.814Z,23.00
2022-08-03T06:15:06.079Z,23.00
2022-08-03T06:15:40.951Z,23.01
2022-08-03T06:16:15.736Z,23.00
2022-08-03T06:16:47.953Z,22.99
2022-08-03T06:17:20.136Z,22.99
2022-08-03T06:18:01.456Z,22.97
2022-08-03T06:18:34.321Z,22.93
2022-08-03T06:19:09.115Z,22.91
2022-08-03T06:19:41.252Z,22.88
2022-08-03T06:20:17.069Z,22.88
2022-08-03T06:20:52.316Z,22.85
2022-08-03T06:21:24.624Z,22.84
2022-08-03T06:22:02.147Z,22.84
2022-08-03T06:22:35.512Z,22.86
2022-08-03T06:23:07.762Z,22.87
2022-08-03T06:23:54.619Z,22.88
2022-08-03T06:24:27.502Z,22.90
2022-08-03T06:25:04.929Z,22.95
2022-08-03T06:25:43.205Z,22.98
2022-08-03T06:26:15.458Z,22.98
2022-08-03T06:26:47.603Z,23.03
2022-08-03T06:27:31.407Z,23.05
2022-08-03T06:28:14.971Z,23.04
2022-08-03T06:28:59.232Z,23.02
2022-08-03T06:29:31.573Z,23.05
2022-08-03T06:30:04.511Z,23.09
2022-08-03T06:30:39.393Z,23.09
2022-08-03T06:31:11.499Z,23.09
2022-08-03T06:31:43.628Z,23.09
2022-08-03T06:32:18.958Z,23.08
2022-08-03T06:32:52.678Z,23.09
2022-08-03T06:33:26.412Z,23.08
2022-08-03T06:34:32.872Z,22.98
2022-08-03T06:35:09.991Z,22.92
2022-08-03T06:35:47.352Z,22.92
2022-08-03T06:36:19.507Z,22.89
2022-08-03T06:36:52.351Z,22.89
2022-08-03T06:37:27.505Z,22.89
2022-08-03T06:37:59.847Z,22.90
2022-08-03T06:38:32.540Z,22.90
2022-08-03T06:39:08.370Z,22.89
2022-08-03T06:39:40.785Z,22.88
2022-08-03T06:40:21.800Z,22.85
2022-08-03T06:40:57.122Z,22.79
2022-08-03T06:41:29.290Z,22.79
2022-08-03T06:42:05.056Z,22.78
2022-08-03T06:42:38.703Z,22.75
2022-08-03T06:43:12.758Z,22.75
2022-08-03T06:44:02.999Z,22.75
2022-08-03T06:44:38.797Z,22.72
2022-08-03T06:45:12.347Z,22.74
2022-08-03T06:45:47.585Z,22.77
2022-08-03T06:46:20.265Z,22.80
2022-08-03T06:46:53.098Z,22.82
2022-08-03T06:47:27.856Z,22.86
2022-08-03T06:48:05.431Z,22.88
2022-08-03T06:48:37.654Z,22.90
2022-08-03T06:49:13.013Z,22.95
2022-08-03T06:50:12.615Z,22.97
2022-08-03T06:50:42.144Z,22.99
2022-08-03T06:51:17.486Z,23.03
2022-08-03T06:52:06.041Z,23.05
2022-08-03T06:52:41.598Z,23.08
2022-08-03T06:53:19.719Z,23.11
2022-08-03T06:53:53.665Z,23.11
2022-08-03T06:54:28.428Z,23.14
2022-08-03T06:55:00.586Z,23.16
2022-08-03T06:55:35.837Z,23.19
2022-08-03T06:56:14.693Z,23.22
2022-08-03T06:56:46.813Z,23.26
2022-08-03T06:57:21.605Z,23.28
2022-08-03T06:57:54.410Z,23.30
2022-08-03T06:58:32.019Z,23.29
2022-08-03T06:59:06.819Z,23.34
2022-08-03T07:00:09.049Z,23.37
2022-08-03T07:00:34.002Z,23.41
2022-08-03T07:01:06.412Z,23.47
2022-08-03T07:01:38.628Z,23.53
2022-08-03T07:02:18.933Z,23.57
2022-08-03T07:02:56.114Z,23.60
2022-08-03T07:03:32.785Z,23.63
2022-08-03T07:04:06.054Z,23.64
2022-08-03T07:04:38.388Z,23.65
2022-08-03T07:05:14.176Z,23.67
2022-08-03T07:05:46.999Z,23.69
2022-08-03T07:06:21.869Z,23.71
2022-08-03T07:06:57.086Z,23.73
2022-08-03T07:07:29.341Z,23.75
2022-08-03T07:08:04.042Z,23.76
2022-08-03T07:08:36.219Z,23.73
2022-08-03T07:09:08.453Z,23.72
2022-08-03T07:09:43.278Z,23.69
2022-08-03T07:10:32.367Z,23.67
2022-08-03T07:11:04.597Z,23.63
2022-08-03T07:11:37.014Z,23.59
2022-08-03T07:12:12.000Z,23.53
2022-08-03T07:12:56.125Z,23.49
2022-08-03T07:13:31.755Z,23.45
2022-08-03T07:14:04.436Z,23.43
2022-08-03T07:14:36.687Z,23.43
2022-08-03T07:15:20.658Z,23.44
2022-08-03T07:16:05.621Z,23.41
2022-08-03T07:16:40.392Z,23.43
2022-08-03T07:17:12.783Z,23.43
2022-08-03T07:17:47.540Z,23.43
2022-08-03T07:18:28.284Z,23.39
2022-08-03T07:19:04.830Z,23.34
2022-08-03T07:19:36.974Z,23.32
2022-08-03T07:20:09.746Z,23.29
2022-08-03T07:20:44.927Z,23.28
2022-08-03T07:21:17.380Z,23.29
2022-08-03T07:21:53.551Z,23.33
2022-08-03T07:22:28.685Z,23.34
2022-08-03T07:23:01.044Z,23.35
2022-08-03T07:23:35.830Z,23.36
2022-08-03T07:24:08.034Z,23.38
2022-08-03T07:24:41.998Z,23.40
2022-08-03T07:25:16.747Z,23.41
2022-08-03T07:25:49.035Z,23.45
2022-08-03T07:26:21.462Z,23.48
2022-08-03T07:26:56.190Z,23.53
2022-08-03T07:27:29.440Z,23.57
2022-08-03T07:28:04.355Z,23.61
2022-08-03T07:28:36.579Z,23.66
2022-08-03T07:29:15.003Z,23.68
2022-08-03T07:29:47.628Z,23.69
2022-08-03T07:30:22.451Z,23.69
2022-08-03T07:30:54.834Z,23.69
2022-08-03T07:31:27.275Z,23.73
2022-08-03T07:32:09.447Z,23.73
2022-08-03T07:32:50.260Z,23.75
2022-08-03T07:33:25.608Z,23.76
2022-08-03T07:33:57.789Z,23.76
2022-08-03T07:34:30.440Z,23.77
2022-08-03T07:35:08.707Z,23.80
2022-08-03T07:35:49.096Z,23.82
2022-08-03T07:36:24.963Z,23.83
2022-08-03T07:36:59.768Z,23.85
2022-08-03T07:37:34.597Z,23.86
2022-08-03T07:38:06.934Z,23.86
2022-08-03T07:38:41.676Z,23.87
2022-08-03T07:39:16.681Z,23.85
2022-08-03T07:39:52.877Z,23.87
2022-08-03T07:40:30.609Z,23.86
2022-08-03T07:41:04.258Z,23.87
2022-08-03T07:41:39.036Z,23.87
2022-08-03T07:42:14.920Z,23.85
2022-08-03T07:42:52.134Z,23.85
2022-08-03T07:43:25.777Z,23.85
2022-08-03T07:43:57.927Z,23.84
2022-08-03T07:44:32.739Z,23.86
2022-08-03T07:45:05.766Z,23.88
2022-08-03T07:45:40.534Z,23.89
2022-08-03T07:46:12.787Z,23.91
2022-08-03T07:46:44.981Z,23.93
2022-08-03T07:47:22.327Z,23.94
2022-08-03T07:47:55.091Z,23.95
2022-08-03T07:48:27.422Z,23.95
2022-08-03T07:49:02.274Z,23.98
2022-08-03T07:49:34.686Z,23.98
2022-08-03T07:50:11.307Z,23.98
2022-08-03T07:50:43.563Z,23.97
2022-08-03T07:51:18.314Z,23.96